Time;durP1;ratioP1;P1;durP2;ratioP2;P2;SDS_P1;SDS_P2;PMS_P1;PMS_P2;Temp;Humidity;BMP_temperature;BMP_pressure;BME280_temperature;BME280_humidity;BME280_pressure;Samples;Min_cycle;Max_cycle;Signal;HPM_P1;HPM_P2
2023/01/04 00:03:42;;;;;;;8.00;0.47;;;;;;;9.63;100.00;101933.41;10405911;28;20045;-92
2023/01/04 00:08:44;;;;;;;0.00;0.00;;;;;;;9.86;100.00;101954.16;10385957;28;20048;-92
2023/01/04 00:13:48;;;;;;;0.00;0.00;;;;;;;9.65;100.00;101934.31;10393071;28;20066;-92
2023/01/04 00:18:52;;;;;;;1.17;0.22;;;;;;;9.62;100.00;101937.66;10375300;28;20448;-94
2023/01/04 00:23:59;;;;;;;0.00;0.00;;;;;;;9.36;100.00;101913.28;10418092;28;20048;-92
2023/01/04 00:29:06;;;;;;;0.00;0.00;;;;;;;9.67;100.00;101917.28;10426650;28;20048;-92
2023/01/04 00:34:11;;;;;;;0.10;0.10;;;;;;;9.10;100.00;101935.16;10407462;28;20049;-95
2023/01/04 00:39:15;;;;;;;0.00;0.00;;;;;;;8.93;100.00;101940.41;10399275;28;20080;-92
2023/01/04 00:44:20;;;;;;;0.00;0.00;;;;;;;8.85;100.00;101942.56;10398816;28;20053;-94
2023/01/04 00:49:22;;;;;;;0.43;0.30;;;;;;;9.02;100.00;101930.53;10394792;28;20395;-92
2023/01/04 00:54:24;;;;;;;0.00;0.00;;;;;;;9.03;100.00;101924.59;10399719;28;20049;-93
2023/01/04 00:59:26;;;;;;;0.00;0.00;;;;;;;9.06;100.00;101931.56;10399657;28;20065;-93
2023/01/04 01:04:28;;;;;;;0.43;0.17;;;;;;;8.69;100.00;101916.91;10401431;28;20048;-94
2023/01/04 01:09:30;;;;;;;0.28;0.25;;;;;;;8.82;100.00;101916.75;10431105;28;20468;-92
2023/01/04 01:14:32;;;;;;;0.25;0.10;;;;;;;8.92;100.00;101958.28;10428653;28;20041;-95
2023/01/04 01:19:33;;;;;;;0.00;0.00;;;;;;;9.04;100.00;101964.06;10386677;28;20033;-94
2023/01/04 01:24:35;;;;;;;0.40;0.30;;;;;;;9.29;100.00;101958.41;10421516;28;20049;-94
2023/01/04 01:29:37;;;;;;;0.15;0.15;;;;;;;9.33;100.00;101962.00;10423058;28;20508;-92
2023/01/04 01:34:38;;;;;;;1.85;0.82;;;;;;;9.01;100.00;101954.47;10369819;28;20227;-93
2023/01/04 01:39:40;;;;;;;0.85;0.25;;;;;;;9.19;100.00;101941.66;10373652;28;20050;-93
2023/01/04 01:44:42;;;;;;;0.08;0.08;;;;;;;9.47;100.00;101949.78;10398434;28;20050;-94
2023/01/04 01:49:47;;;;;;;10.10;1.88;;;;;;;9.56;100.00;101933.94;10415198;28;20135;-93
2023/01/04 01:54:58;;;;;;;0.10;0.10;;;;;;;9.75;100.00;101931.38;10399797;28;20100;-94
2023/01/04 02:00:05;;;;;;;0.00;0.00;;;;;;;9.30;100.00;101920.72;10402907;28;20108;-90
2023/01/04 02:05:13;;;;;;;0.20;0.20;;;;;;;9.00;100.00;101918.41;10411565;28;20521;-92
2023/01/04 02:10:16;;;;;;;0.00;0.00;;;;;;;8.96;100.00;101926.81;10397256;28;20041;-92
2023/01/04 02:15:19;;;;;;;0.20;0.10;;;;;;;9.23;100.00;101939.22;10394881;28;20057;-93
2023/01/04 02:20:35;;;;;;;0.13;0.13;;;;;;;8.85;100.00;101942.56;10382565;28;20072;-91
2023/01/04 02:26:06;;;;;;;0.35;0.08;;;;;;;8.98;100.00;101936.34;10398855;28;20053;-91
2023/01/04 02:31:26;;;;;;;0.00;0.00;;;;;;;9.04;100.00;101920.34;10390121;28;20049;-92
2023/01/04 02:36:55;;;;;;;0.10;0.03;;;;;;;9.15;100.00;101916.59;10407783;28;20533;-93
2023/01/04 02:42:15;;;;;;;0.20;0.10;;;;;;;8.95;100.00;101892.50;10415344;28;20052;-91
2023/01/04 02:50:29;;;;;;;0.00;0.00;;;;;;;9.30;100.00;101884.69;10402970;28;20048;-92
2023/01/04 02:52:44;;;;;;;0.03;0.00;;;;;;;9.58;100.00;101880.81;10419511;28;20456;-93
2023/01/04 02:58:18;;;;;;;0.20;0.20;;;;;;;9.31;100.00;101887.34;10411667;28;20489;-92
2023/01/04 03:09:11;;;;;;;1.75;0.10;;;;;;;9.62;100.00;101872.47;10418981;28;20068;-93
2023/01/04 03:14:19;;;;;;;0.00;0.00;;;;;;;9.60;100.00;101874.06;10411008;28;20053;-92
2023/01/04 03:19:52;;;;;;;0.20;0.15;;;;;;;9.32;100.00;101883.09;10409239;28;20042;-93
2023/01/04 03:35:48;;;;;;;0.10;0.10;;;;;;;10.02;100.00;102093.06;10434048;28;20049;-93
2023/01/04 03:52:13;;;;;;;0.00;0.00;;;;;;;10.05;100.00;102074.31;10429883;28;20048;-92
2023/01/04 03:57:16;;;;;;;0.00;0.00;;;;;;;10.12;100.00;102036.03;10387833;28;20041;-92
2023/01/04 04:02:23;;;;;;;0.00;0.00;;;;;;;10.09;100.00;101989.53;10413279;28;20083;-93
2023/01/04 04:12:47;;;;;;;0.00;0.00;;;;;;;10.24;100.00;101922.41;10410021;28;20058;-93
2023/01/04 04:17:52;;;;;;;0.10;0.10;;;;;;;10.33;100.00;101891.00;10392773;28;20480;-93
2023/01/04 04:22:54;;;;;;;0.00;0.00;;;;;;;10.27;100.00;101855.56;10389547;28;20042;-92
2023/01/04 04:27:56;;;;;;;0.00;0.00;;;;;;;10.08;100.00;101919.97;10416566;28;20534;-92
2023/01/04 04:32:57;;;;;;;0.38;0.10;;;;;;;10.20;100.00;102123.06;10401011;28;20056;-93
2023/01/04 04:37:59;;;;;;;0.10;0.10;;;;;;;10.49;100.00;102165.69;10398973;28;20045;-93
2023/01/04 04:43:01;;;;;;;0.20;0.20;;;;;;;10.55;100.00;102118.69;10414992;28;20056;-91
2023/01/04 04:48:03;;;;;;;0.00;0.00;;;;;;;10.50;100.00;102050.63;10403088;28;20038;-91
2023/01/04 04:53:05;;;;;;;0.25;0.17;;;;;;;10.44;100.00;102003.16;10414797;28;20053;-93
2023/01/04 04:58:06;;;;;;;0.10;0.10;;;;;;;10.52;100.00;101922.75;10433093;28;20042;-93
2023/01/04 05:03:09;;;;;;;0.00;0.00;;;;;;;10.75;100.00;101893.66;10402089;28;20382;-94
2023/01/04 05:08:11;;;;;;;0.17;0.05;;;;;;;10.57;100.00;101849.97;10411465;28;20056;-93
2023/01/04 05:13:12;;;;;;;0.38;0.15;;;;;;;10.72;100.00;101829.09;10392484;28;20509;-95
2023/01/04 05:18:16;;;;;;;0.00;0.00;;;;;;;10.58;100.00;101799.31;10410754;28;20064;-91
2023/01/04 05:23:21;;;;;;;0.00;0.00;;;;;;;10.81;100.00;101792.47;10414748;28;20071;-93
2023/01/04 05:28:23;;;;;;;0.13;0.10;;;;;;;10.97;100.00;101788.81;10373441;28;20046;-95
2023/01/04 05:33:31;;;;;;;0.05;0.05;;;;;;;10.81;100.00;101766.69;10383174;28;20061;-93
2023/01/04 05:38:33;;;;;;;4.43;0.82;;;;;;;10.69;100.00;101761.94;10375962;28;20042;-92
2023/01/04 05:43:35;;;;;;;0.05;0.05;;;;;;;10.79;100.00;101766.66;10423627;28;20485;-96
2023/01/04 05:48:37;;;;;;;0.00;0.00;;;;;;;10.80;100.00;101759.78;10402993;28;20049;-93
2023/01/04 05:53:39;;;;;;;0.22;0.10;;;;;;;10.78;100.00;101752.00;10416732;28;20398;-92
2023/01/04 05:58:41;;;;;;;0.20;0.10;;;;;;;10.75;100.00;101730.38;10401903;28;20041;-92
2023/01/04 06:03:42;;;;;;;0.08;0.08;;;;;;;10.46;100.00;101724.97;10422913;28;20099;-93
2023/01/04 06:08:44;;;;;;;0.10;0.10;;;;;;;10.84;100.00;101735.91;10402757;28;20038;-95
2023/01/04 06:13:50;;;;;;;0.15;0.15;;;;;;;10.75;100.00;101720.97;10394075;28;20049;-96
2023/01/04 06:18:52;;;;;;;0.55;0.40;;;;;;;10.61;100.00;101714.41;10423060;28;20033;-94
2023/01/04 06:23:53;;;;;;;0.13;0.13;;;;;;;10.71;100.00;101724.22;10405924;28;20172;-95
2023/01/04 06:28:55;;;;;;;0.28;0.00;;;;;;;10.73;100.00;101732.91;10405432;28;20048;-93
2023/01/04 06:33:57;;;;;;;0.32;0.32;;;;;;;10.52;100.00;101832.56;10414818;28;20045;-93
2023/01/04 06:39:00;;;;;;;0.10;0.10;;;;;;;10.55;100.00;101884.19;10396111;28;20132;-90
2023/01/04 06:44:01;;;;;;;0.00;0.00;;;;;;;11.04;100.00;101924.00;10403891;28;20045;-93
2023/01/04 06:49:03;;;;;;;0.17;0.17;;;;;;;11.20;100.00;101908.31;10415374;28;20060;-93
2023/01/04 06:54:05;;;;;;;0.40;0.40;;;;;;;11.32;100.00;101884.72;10415513;28;20049;-92
2023/01/04 06:59:08;;;;;;;0.20;0.20;;;;;;;11.47;100.00;101827.63;10414796;28;20049;-93
2023/01/04 07:04:10;;;;;;;0.13;0.10;;;;;;;11.18;100.00;101774.97;10397604;28;20049;-92
2023/01/04 07:09:11;;;;;;;0.00;0.00;;;;;;;11.49;100.00;101845.78;10409614;28;20038;-95
2023/01/04 07:14:13;;;;;;;0.25;0.13;;;;;;;11.70;100.00;101794.94;10390131;28;20527;-91
2023/01/04 07:19:15;;;;;;;0.00;0.00;;;;;;;11.83;100.00;101730.81;10403597;28;20045;-93
2023/01/04 07:24:17;;;;;;;1.83;0.40;;;;;;;11.92;100.00;101702.72;10416814;28;20057;-92
2023/01/04 07:29:18;;;;;;;0.00;0.00;;;;;;;11.98;100.00;101669.38;10412919;28;20065;-93
2023/01/04 07:34:22;;;;;;;0.00;0.00;;;;;;;12.00;100.00;101649.66;10411869;28;20053;-94
2023/01/04 07:39:24;;;;;;;0.38;0.20;;;;;;;12.00;100.00;101643.59;10421412;28;20033;-91
2023/01/04 07:44:27;;;;;;;0.10;0.10;;;;;;;12.18;100.00;101627.81;10400061;28;20049;-94
2023/01/04 07:49:28;;;;;;;0.17;0.10;;;;;;;12.02;100.00;101611.84;10397690;28;20522;-92
2023/01/04 07:54:30;;;;;;;0.10;0.10;;;;;;;12.26;100.00;101603.06;10402698;28;20057;-91
2023/01/04 07:59:32;;;;;;;0.05;0.05;;;;;;;11.74;100.00;101605.75;10400560;28;20049;-93
2023/01/04 08:04:34;;;;;;;0.00;0.00;;;;;;;11.83;100.00;101604.31;10396498;28;20045;-91
2023/01/04 08:09:36;;;;;;;16.80;0.75;;;;;;;11.78;100.00;101608.44;10400047;28;20037;-92
2023/01/04 08:14:37;;;;;;;0.10;0.10;;;;;;;11.95;100.00;101602.09;10403974;28;20049;-93
2023/01/04 08:19:39;;;;;;;0.10;0.00;;;;;;;12.10;100.00;101598.31;10415371;28;20053;-93
2023/01/04 08:24:41;;;;;;;0.98;0.75;;;;;;;12.06;100.00;101598.19;10416364;28;20049;-94
2023/01/04 08:29:42;;;;;;;1.05;0.10;;;;;;;12.01;100.00;101584.28;10404119;28;20083;-91
2023/01/04 08:34:44;;;;;;;0.00;0.00;;;;;;;12.04;100.00;101594.69;10399188;28;20045;-92
2023/01/04 08:39:46;;;;;;;0.32;0.10;;;;;;;11.92;100.00;101614.94;10421876;28;20056;-92
2023/01/04 08:44:50;;;;;;;0.00;0.00;;;;;;;12.17;100.00;101623.50;10406764;28;20072;-92
2023/01/04 08:50:00;;;;;;;0.80;0.15;;;;;;;11.58;100.00;101655.09;10414074;28;20061;-92
2023/01/04 08:55:10;;;;;;;1.08;0.43;;;;;;;12.11;100.00;101646.53;10421068;28;20046;-94
2023/01/04 09:06:50;;;;;;;0.25;0.25;;;;;;;11.84;100.00;101585.41;10429624;28;20087;-92
2023/01/04 09:11:52;;;;;;;0.13;0.10;;;;;;;12.02;100.00;101604.09;10412728;28;20080;-91
2023/01/04 09:16:55;;;;;;;0.40;0.10;;;;;;;12.21;100.00;101609.81;10426565;28;20412;-93
2023/01/04 09:21:57;;;;;;;0.40;0.13;;;;;;;12.11;100.00;101610.34;10418454;28;20045;-91
2023/01/04 09:26:59;;;;;;;0.15;0.15;;;;;;;12.14;100.00;101615.63;10439150;28;20131;-92
2023/01/04 09:32:01;;;;;;;0.10;0.03;;;;;;;12.34;100.00;101604.19;10420503;28;20068;-92
2023/01/04 09:37:03;;;;;;;0.22;0.22;;;;;;;12.48;100.00;101606.31;10406390;28;20042;-94
2023/01/04 09:42:16;;;;;;;8.40;0.30;;;;;;;12.74;100.00;101598.44;10416655;28;20045;-93
2023/01/04 09:47:48;;;;;;;0.10;0.10;;;;;;;12.75;100.00;101592.44;10404480;28;20061;-93
2023/01/04 09:52:53;;;;;;;0.00;0.00;;;;;;;12.81;100.00;101577.09;10371831;28;20132;-94
2023/01/04 09:58:01;;;;;;;0.00;0.00;;;;;;;12.90;100.00;101568.69;10437411;28;20056;-93
2023/01/04 10:03:17;;;;;;;0.90;0.90;;;;;;;12.87;100.00;101560.88;10406640;28;20049;-93
2023/01/04 10:08:20;;;;;;;0.68;0.22;;;;;;;12.79;100.00;101581.31;10408058;28;20045;-93
2023/01/04 10:13:44;;;;;;;0.10;0.10;;;;;;;12.84;100.00;101595.28;10437432;28;20440;-93
2023/01/04 10:19:23;;;;;;;0.10;0.10;;;;;;;-146.30;100.00;58188.94;10373155;28;20465;-92
2023/01/04 10:24:50;;;;;;;0.00;0.00;;;;;;;-146.30;100.00;58188.94;10403920;28;20045;-94
2023/01/04 10:30:15;;;;;;;0.00;0.00;;;;;;;-146.30;100.00;58188.94;10417405;28;20063;-94
2023/01/04 10:35:16;;;;;;;0.15;0.13;;;;;;;-146.30;100.00;58188.94;10411949;28;20520;-94
2023/01/04 10:40:18;;;;;;;1.95;0.32;;;;;;;-146.30;100.00;58188.94;10431992;28;20492;-94
2023/01/04 10:45:46;;;;;;;0.30;0.00;;;;;;;-146.30;100.00;58188.94;10428213;28;20053;-93
2023/01/04 10:50:56;;;;;;;0.25;0.10;;;;;;;-146.30;100.00;58188.94;10421175;28;20052;-92
2023/01/04 10:56:18;;;;;;;0.00;0.00;;;;;;;-146.30;100.00;58188.94;10442932;28;20045;-95
2023/01/04 11:01:37;;;;;;;0.00;0.00;;;;;;;-146.30;100.00;58188.94;10404221;28;20049;-93
2023/01/04 11:07:04;;;;;;;0.00;0.00;;;;;;;-146.30;100.00;58188.94;10403942;28;20048;-93
2023/01/04 11:12:11;;;;;;;0.47;0.30;;;;;;;-146.30;100.00;58188.94;10421282;28;20049;-94
2023/01/04 11:17:13;;;;;;;0.00;0.00;;;;;;;-146.30;100.00;58188.94;10405072;28;20049;-94
2023/01/04 11:22:54;;;;;;;0.00;0.00;;;;;;;20.51;100.00;95550.41;10404314;28;20501;-94
2023/01/04 11:27:58;;;;;;;0.00;0.00;;;;;;;18.55;100.00;98017.19;10402714;28;20489;-94
2023/01/04 11:33:19;;;;;;;0.00;0.00;;;;;;;16.88;100.00;104219.50;10425262;28;20056;-95
2023/01/04 11:38:28;;;;;;;0.00;0.00;;;;;;;16.53;100.00;107949.94;10401855;28;20045;-93
2023/01/04 11:44:35;;;;;;;0.00;0.00;;;;;;;16.87;100.00;107616.63;10460418;28;20045;-93
2023/01/04 11:49:37;;;;;;;0.00;0.00;;;;;;;16.90;100.00;106373.88;10419293;28;20049;-93
2023/01/04 11:54:39;;;;;;;0.00;0.00;;;;;;;17.35;100.00;105556.47;10402038;28;20076;-93
2023/01/04 11:59:40;;;;;;;0.00;0.00;;;;;;;17.62;100.00;105343.66;10401008;28;20045;-93
2023/01/04 12:04:42;;;;;;;0.00;0.00;;;;;;;17.10;100.00;105283.66;10415594;28;20064;-90
2023/01/04 12:09:44;;;;;;;0.00;0.00;;;;;;;17.27;100.00;105136.25;10393337;28;20046;-90
2023/01/04 12:14:49;;;;;;;0.10;0.00;;;;;;;17.02;100.00;104977.41;10377741;28;20133;-90
2023/01/04 12:19:54;;;;;;;0.20;0.20;;;;;;;16.89;100.00;104914.06;10376600;28;20096;-90
2023/01/04 12:31:50;;;;;;;;;;;;;;;16.77;100.00;104932.41;10395563;22;20423;-80
2023/01/04 12:36:55;;;;;;;0.10;0.10;;;;;;;16.54;100.00;104844.09;10371591;28;19949;-79
2023/01/04 12:42:06;;;;;;;0.00;0.00;;;;;;;16.52;100.00;104837.91;10369252;28;20045;-80
2023/01/04 12:52:44;;;;;;;0.10;0.10;;;;;;;16.65;100.00;104869.09;10372497;28;20046;-81
2023/01/04 12:58:27;;;;;;;0.08;0.08;;;;;;;16.10;100.00;104832.59;10362296;28;20053;-80
2023/01/04 13:03:54;;;;;;;0.22;0.22;;;;;;;16.53;100.00;104861.41;10370040;28;20045;-79
2023/01/04 13:09:16;;;;;;;0.00;0.00;;;;;;;15.78;100.00;104772.44;10371302;28;20121;-79
2023/01/04 13:14:36;;;;;;;0.00;0.00;;;;;;;16.11;100.00;104785.91;10332410;28;20495;-80
2023/01/04 13:19:38;;;;;;;0.00;0.00;;;;;;;16.36;100.00;104664.25;10371103;28;20116;-80
2023/01/04 13:24:42;;;;;;;0.10;0.10;;;;;;;16.07;100.00;104531.56;10370918;28;20392;-80
2023/01/04 13:29:44;;;;;;;0.00;0.00;;;;;;;16.27;100.00;104513.69;10369821;28;20469;-80
2023/01/04 13:34:51;;;;;;;0.08;0.08;;;;;;;15.98;100.00;104452.97;10371197;28;20085;-79
2023/01/04 13:40:19;;;;;;;0.88;0.47;;;;;;;16.17;100.00;104393.47;10358715;28;20042;-80
2023/01/04 13:45:43;;;;;;;0.13;0.03;;;;;;;16.46;100.00;104425.47;10370003;28;20057;-80
2023/01/04 13:50:58;;;;;;;0.20;0.20;;;;;;;16.13;100.00;104464.31;10371013;28;20473;-79
2023/01/04 13:56:02;;;;;;;0.00;0.00;;;;;;;16.36;100.00;104540.22;10385848;28;20046;-80
2023/01/04 14:01:12;;;;;;;0.63;0.20;;;;;;;16.07;100.00;104552.38;10354114;28;20044;-81
2023/01/04 14:06:28;;;;;;;0.20;0.20;;;;;;;16.26;100.00;104647.19;10374941;28;20065;-81
2023/01/04 14:17:21;;;;;;;0.00;0.00;;;;;;;16.34;100.00;105202.88;10375546;28;20141;-81
2023/01/04 14:22:22;;;;;;;0.65;0.30;;;;;;;16.57;100.00;105893.59;10362080;28;20619;-81
2023/01/04 14:27:33;;;;;;;0.30;0.10;;;;;;;16.25;100.00;105858.94;10383741;22;20037;-91
2023/01/04 14:32:34;;;;;;;1.98;0.65;;;;;;;16.08;100.00;105891.38;10414434;28;20477;-91
2023/01/04 14:37:36;;;;;;;0.20;0.20;;;;;;;16.13;100.00;105822.41;10405593;28;20476;-90
2023/01/04 14:42:38;;;;;;;0.47;0.22;;;;;;;15.95;100.00;105716.84;10422588;28;20515;-90
2023/01/04 14:47:40;;;;;;;0.05;0.05;;;;;;;15.83;100.00;105649.16;10405245;28;20501;-92
2023/01/04 14:52:50;;;;;;;0.52;0.32;;;;;;;15.74;100.00;105576.47;10421066;28;20073;-90
2023/01/04 14:57:51;;;;;;;0.97;0.57;;;;;;;15.58;100.00;105495.47;10420951;28;20554;-91
2023/01/04 15:02:53;;;;;;;0.28;0.20;;;;;;;15.92;100.00;105473.00;10420621;28;20307;-91
2023/01/04 15:07:55;;;;;;;0.00;0.00;;;;;;;15.84;100.00;105425.59;10420780;28;20053;-91
2023/01/04 15:12:59;;;;;;;15.45;0.60;;;;;;;15.85;100.00;105320.78;10421260;28;20478;-91
2023/01/04 15:18:01;;;;;;;0.05;0.05;;;;;;;15.40;100.00;105100.78;10420240;28;20064;-91
2023/01/04 15:23:03;;;;;;;2.38;0.20;;;;;;;15.66;100.00;105130.38;10420685;28;20049;-89
2023/01/04 15:28:06;;;;;;;0.00;0.00;;;;;;;15.53;100.00;105150.25;10419541;28;20045;-89
2023/01/04 15:33:08;;;;;;;0.00;0.00;;;;;;;15.42;100.00;105178.84;10419154;28;20045;-89
2023/01/04 15:38:10;;;;;;;10.63;0.38;;;;;;;15.44;100.00;105227.56;10419591;28;20046;-89
2023/01/04 15:43:18;;;;;;;0.20;0.20;;;;;;;15.22;100.00;105257.16;10386759;28;20073;-90
2023/01/04 15:48:20;;;;;;;1.60;0.55;;;;;;;15.14;100.00;105275.50;10405557;28;20060;-90
2023/01/04 15:53:22;;;;;;;0.30;0.13;;;;;;;15.55;100.00;105353.16;10418793;28;20512;-90
2023/01/04 15:58:24;;;;;;;0.25;0.10;;;;;;;15.57;100.00;105368.84;10402048;28;20489;-90
2023/01/04 16:03:25;;;;;;;0.25;0.17;;;;;;;15.19;100.00;105328.75;10418053;28;20140;-89
2023/01/04 16:08:27;;;;;;;0.20;0.20;;;;;;;15.53;100.00;105399.78;10418585;28;20049;-90
2023/01/04 16:13:28;;;;;;;0.00;0.00;;;;;;;15.55;100.00;106568.19;10417661;28;20050;-88
2023/01/04 16:18:30;;;;;;;6.25;0.47;;;;;;;15.25;100.00;109818.81;10401253;28;20477;-87
2023/01/04 16:23:34;;;;;;;0.75;0.55;;;;;;;15.42;100.00;110706.00;10416232;28;20471;-87
2023/01/04 16:28:36;;;;;;;0.10;0.10;;;;;;;15.26;100.00;115434.19;10416912;28;20061;-88
2023/01/04 16:33:38;;;;;;;0.00;0.00;;;;;;;15.16;100.00;115023.13;10416538;28;20400;-87
2023/01/04 16:38:42;;;;;;;1.50;0.50;;;;;;;15.57;100.00;114446.13;10416099;28;20454;-87
2023/01/04 16:43:50;;;;;;;0.00;0.00;;;;;;;15.28;100.00;112927.91;10416703;28;20049;-86
2023/01/04 16:48:57;;;;;;;4.38;1.20;;;;;;;15.18;100.00;110758.53;10416361;28;20048;-87
2023/01/04 16:54:07;;;;;;;0.00;0.00;;;;;;;15.52;100.00;109507.13;10415842;28;20053;-87
2023/01/04 16:59:14;;;;;;;;;;;;;;;15.20;100.00;108642.69;10415143;28;20417;-89
2023/01/04 17:04:16;;;;;;;2.63;0.45;;;;;;;15.07;100.00;107947.78;10415749;28;20380;-87
2023/01/04 17:09:26;;;;;;;3.20;1.27;;;;;;;14.97;100.00;107409.50;10398788;28;20104;-87
2023/01/04 17:15:18;;;;;;;0.15;0.15;;;;;;;14.95;100.00;106870.59;10398803;28;20405;-88
2023/01/04 17:20:39;;;;;;;0.00;0.00;;;;;;;15.28;100.00;106227.66;10400727;28;20136;-88
2023/01/04 17:25:42;;;;;;;2.03;0.50;;;;;;;15.26;100.00;105353.50;10396072;28;20049;-87
2023/01/04 17:31:34;;;;;;;0.10;0.10;;;;;;;15.23;100.00;106610.16;10374712;28;20049;-88
2023/01/04 17:36:37;;;;;;;0.80;0.32;;;;;;;15.23;100.00;110519.94;10414343;28;20053;-88
2023/01/04 17:41:39;;;;;;;1.17;1.08;;;;;;;15.11;100.00;110073.25;10414409;28;20068;-88
2023/01/04 17:46:41;;;;;;;0.00;0.00;;;;;;;15.46;100.00;107948.06;10414350;28;20042;-87
2023/01/04 17:51:44;;;;;;;0.08;0.00;;;;;;;15.22;100.00;106846.53;10415055;28;20404;-87
2023/01/04 17:56:45;;;;;;;3.92;0.43;;;;;;;14.96;100.00;104995.44;10380962;28;20049;-88
2023/01/04 18:01:47;;;;;;;1.02;0.32;;;;;;;15.11;100.00;103035.06;10373380;28;20052;-86
2023/01/04 18:06:49;;;;;;;0.30;0.30;;;;;;;14.80;100.00;102224.25;10373405;28;20054;-87
2023/01/04 18:11:51;;;;;;;0.50;0.50;;;;;;;15.03;100.00;101900.53;10403620;28;20049;-87
2023/01/04 18:16:55;;;;;;;3.08;0.43;;;;;;;14.82;100.00;101677.78;10421699;28;20140;-87
2023/01/04 18:21:58;;;;;;;0.45;0.30;;;;;;;14.80;100.00;101561.88;10380632;28;20038;-87
2023/01/04 18:27:50;;;;;;;0.40;0.40;;;;;;;14.88;100.00;101511.00;10397173;28;20041;-88
2023/01/04 18:33:22;;;;;;;3.05;0.10;;;;;;;14.65;100.00;101453.47;10396442;28;20417;-87
2023/01/04 18:38:24;;;;;;;0.55;0.30;;;;;;;14.40;100.00;101497.13;10379780;28;20409;-87
2023/01/04 18:43:25;;;;;;;1.25;0.82;;;;;;;14.39;100.00;101588.69;10413188;28;20050;-88
2023/01/04 18:48:27;;;;;;;1.38;0.40;;;;;;;14.30;100.00;101591.06;10420325;28;20188;-88
2023/01/04 18:53:29;;;;;;;0.00;0.00;;;;;;;14.19;100.00;101545.06;10420338;28;20432;-87
2023/01/04 18:58:32;;;;;;;6.82;0.17;;;;;;;14.25;100.00;101578.91;10420055;28;20452;-88
2023/01/04 19:03:39;;;;;;;2.15;1.00;;;;;;;14.15;100.00;101602.84;10419890;28;20052;-87
2023/01/04 19:08:41;;;;;;;0.85;0.57;;;;;;;14.26;100.00;101603.09;10403405;28;20053;-87
2023/01/04 19:13:43;;;;;;;0.00;0.00;;;;;;;14.04;100.00;101560.28;10419749;28;20046;-87
2023/01/04 19:18:45;;;;;;;4.85;0.90;;;;;;;14.53;100.00;101574.28;10402806;28;20095;-87
2023/01/04 19:23:46;;;;;;;0.98;0.63;;;;;;;14.36;100.00;101541.94;10419524;28;20523;-87
2023/01/04 19:28:48;;;;;;;0.10;0.10;;;;;;;14.48;100.00;101554.28;10403166;28;20049;-87
2023/01/04 19:33:50;;;;;;;0.28;0.28;;;;;;;14.42;100.00;101485.03;10402838;28;20052;-87
2023/01/04 19:38:56;;;;;;;3.72;1.55;;;;;;;14.23;100.00;101539.13;10402672;28;20067;-87
2023/01/04 19:43:58;;;;;;;4.93;2.13;;;;;;;14.34;100.00;101566.97;10402701;28;20042;-88
2023/01/04 19:48:59;;;;;;;1.85;1.30;;;;;;;14.29;100.00;101551.34;10402139;28;20548;-87
2023/01/04 19:54:01;;;;;;;4.45;0.98;;;;;;;14.20;100.00;101541.63;10418605;28;20045;-87
2023/01/04 19:59:03;;;;;;;1.42;0.10;;;;;;;14.02;100.00;101582.69;10401954;28;20057;-87
2023/01/04 20:04:04;;;;;;;0.28;0.20;;;;;;;13.99;100.00;101582.63;10417850;28;20037;-87
2023/01/04 20:09:06;;;;;;;2.03;0.73;;;;;;;14.07;100.00;101581.94;10417195;28;20532;-87
2023/01/04 20:14:08;;;;;;;3.30;0.98;;;;;;;14.34;100.00;101543.63;10401246;28;20443;-88
2023/01/04 20:19:09;;;;;;;5.93;0.85;;;;;;;14.28;100.00;101534.91;10417067;28;20128;-87
2023/01/04 20:24:11;;;;;;;0.20;0.10;;;;;;;14.14;100.00;101473.28;10416932;28;20377;-87
2023/01/04 20:29:13;;;;;;;0.05;0.05;;;;;;;14.16;100.00;101446.53;10392079;28;20477;-87
2023/01/04 20:34:15;;;;;;;4.40;1.15;;;;;;;14.05;100.00;101428.19;10415236;28;20048;-88
2023/01/04 20:39:38;;;;;;;1.20;0.40;;;;;;;14.08;100.00;101437.75;10400181;28;20064;-86
2023/01/04 20:44:40;;;;;;;34.58;0.95;;;;;;;14.10;100.00;101430.88;10416095;28;20071;-87
2023/01/04 20:49:42;;;;;;;0.22;0.17;;;;;;;14.17;100.00;101412.03;10415829;28;20045;-87
2023/01/04 20:54:47;;;;;;;0.63;0.35;;;;;;;14.09;100.00;101403.22;10374911;28;20077;-87
2023/01/04 20:59:48;;;;;;;1.75;0.65;;;;;;;14.00;100.00;101388.34;10408987;28;20045;-87
2023/01/04 21:04:50;;;;;;;0.00;0.00;;;;;;;14.21;100.00;101367.16;10399070;28;20063;-89
2023/01/04 21:09:52;;;;;;;0.03;0.03;;;;;;;14.11;100.00;101349.72;10399533;28;20128;-87
2023/01/04 21:14:54;;;;;;;0.22;0.22;;;;;;;14.03;100.00;101339.19;10398845;28;20045;-86
2023/01/04 21:19:55;;;;;;;0.00;0.00;;;;;;;14.11;100.00;101322.06;10415286;28;20052;-87
2023/01/04 21:25:24;;;;;;;0.30;0.30;;;;;;;13.97;100.00;101326.13;10414579;28;20489;-88
2023/01/04 21:30:25;;;;;;;2.65;0.75;;;;;;;14.00;100.00;101320.13;10414562;28;20140;-87
2023/01/04 21:35:27;;;;;;;11.85;0.85;;;;;;;14.12;100.00;101313.47;10414541;28;20140;-89
2023/01/04 21:40:30;;;;;;;1.25;0.28;;;;;;;13.95;100.00;101297.63;10414753;28;20055;-87
2023/01/04 21:45:31;;;;;;;1.20;1.02;;;;;;;13.92;100.00;101284.59;10420991;28;20072;-88
2023/01/04 21:50:34;;;;;;;1.33;0.63;;;;;;;13.77;100.00;101303.34;10406502;28;20045;-88
2023/01/04 21:56:02;;;;;;;1.30;0.95;;;;;;;13.86;100.00;101328.53;10422539;28;20057;-88
2023/01/04 22:01:08;;;;;;;4.00;0.60;;;;;;;13.89;100.00;101338.06;10422416;28;20045;-88
2023/01/04 22:06:52;;;;;;;3.70;0.32;;;;;;;13.69;100.00;101320.44;10422329;28;20049;-87
2023/01/04 22:11:53;;;;;;;20.67;0.88;;;;;;;13.79;100.00;101322.34;10400132;28;20469;-87
2023/01/04 22:16:55;;;;;;;0.80;0.13;;;;;;;13.77;100.00;101320.56;10405587;28;20060;-88
2023/01/04 22:21:56;;;;;;;0.10;0.10;;;;;;;13.68;100.00;101300.56;10421380;28;20401;-87
2023/01/04 22:26:58;;;;;;;0.85;0.25;;;;;;;13.83;100.00;101301.69;10404950;28;20068;-88
2023/01/04 22:32:00;;;;;;;1.08;0.08;;;;;;;13.85;100.00;101316.41;10421445;28;20045;-86
2023/01/04 22:37:01;;;;;;;9.55;1.00;;;;;;;13.88;100.00;101300.94;10421603;28;20049;-86
2023/01/04 22:42:03;;;;;;;0.35;0.35;;;;;;;13.89;100.00;101300.06;10420534;28;20056;-87
2023/01/04 22:47:05;;;;;;;2.92;1.65;;;;;;;13.90;100.00;101298.38;10420575;28;20049;-87
2023/01/04 22:52:07;;;;;;;1.33;1.23;;;;;;;13.89;100.00;101286.28;10404814;28;20500;-88
2023/01/04 22:57:08;;;;;;;3.05;1.25;;;;;;;13.70;100.00;101290.22;10402659;28;20053;-87
2023/01/04 23:02:10;;;;;;;0.60;0.30;;;;;;;13.64;100.00;101298.75;10404455;28;20049;-87
2023/01/04 23:07:12;;;;;;;1.10;0.45;;;;;;;13.62;100.00;101284.91;10403893;28;20084;-87
2023/01/04 23:12:13;;;;;;;1.88;1.17;;;;;;;13.72;100.00;101267.84;10417867;28;20504;-88
2023/01/04 23:17:15;;;;;;;0.40;0.20;;;;;;;13.63;100.00;101269.41;10362393;28;20042;-87
2023/01/04 23:22:17;;;;;;;1.38;0.52;;;;;;;13.53;100.00;101270.06;10408390;28;20041;-87
2023/01/04 23:27:21;;;;;;;2.17;0.75;;;;;;;13.56;100.00;101270.13;10403238;28;20049;-87
2023/01/04 23:32:23;;;;;;;0.57;0.57;;;;;;;13.54;100.00;101251.09;10418976;28;20076;-87
2023/01/04 23:37:25;;;;;;;0.10;0.08;;;;;;;13.75;100.00;101248.03;10418641;28;20060;-87
2023/01/04 23:42:26;;;;;;;0.55;0.52;;;;;;;13.50;100.00;101236.38;10418508;28;20045;-87
2023/01/04 23:47:28;;;;;;;3.13;0.77;;;;;;;13.46;100.00;101234.53;10418417;28;20061;-86
2023/01/04 23:52:30;;;;;;;0.20;0.20;;;;;;;13.40;100.00;101239.59;10418747;28;20045;-88
2023/01/04 23:57:31;;;;;;;1.50;0.25;;;;;;;13.41;100.00;101242.22;10401214;28;20052;-86
